Time;durP1;ratioP1;P1;durP2;ratioP2;P2;SDS_P1;SDS_P2;PMS_P1;PMS_P2;Temp;Humidity;BMP_temperature;BMP_pressure;BME280_temperature;BME280_humidity;BME280_pressure;Samples;Min_cycle;Max_cycle;Signal;HPM_P1;HPM_P2
2022/09/03 06:01:31;;;;;;;;;6.33;4.00;;;;;;;;5473572;22;45633;-66
2022/09/03 06:04:00;;;;;;;;;3.00;3.00;;;;;;;;4991098;28;46595;-67
2022/09/03 06:06:26;;;;;;;;;8.33;7.67;;;;;;;;4994329;28;45455;-67
2022/09/03 06:08:56;;;;;;;;;7.33;6.00;;;;;;;;4994458;28;45347;-66
2022/09/03 06:11:25;;;;;;;;;4.33;4.33;;;;;;;;4991666;28;45607;-65
2022/09/03 06:13:51;;;;;;;;;5.33;5.33;;;;;;;;4994026;28;46120;-65
2022/09/03 06:16:16;;;;;;;;;6.33;5.00;;;;;;;;4997188;28;45442;-65
2022/09/03 06:18:41;;;;;;;;;10.00;10.00;;;;;;;;4998457;28;45313;-66
2022/09/03 06:21:07;;;;;;;;;7.33;6.67;;;;;;;;4997022;28;45519;-66
2022/09/03 06:23:33;;;;;;;;;6.67;6.00;;;;;;;;4995202;28;46077;-66
2022/09/03 06:26:08;;;;;;;;;5.33;5.33;;;;;;;;4993500;28;45294;-66
2022/09/03 06:28:34;;;;;;;;;7.00;7.00;;;;;;;;4997712;28;45504;-66
2022/09/03 06:31:01;;;;;;;;;5.00;5.00;;;;;;;;4995223;28;45421;-65
2022/09/03 06:33:29;;;;;;;;;4.67;4.67;;;;;;;;4995397;28;45449;-66
2022/09/03 06:35:56;;;;;;;;;5.33;5.33;;;;;;;;4997628;28;45436;-65
2022/09/03 06:38:22;;;;;;;;;5.00;4.00;;;;;;;;4998949;28;45423;-66
2022/09/03 06:41:03;;;;;;;;;4.67;4.67;;;;;;;;4994452;28;45710;-66
2022/09/03 06:43:29;;;;;;;;;9.33;9.33;;;;;;;;4994124;28;46007;-65
2022/09/03 06:45:58;;;;;;;;;6.33;5.00;;;;;;;;4990829;28;45416;-65
2022/09/03 06:48:24;;;;;;;;;10.67;9.00;;;;;;;;4996070;28;45557;-66
2022/09/03 06:50:57;;;;;;;;;9.00;9.00;;;;;;;;4985686;28;45676;-66
2022/09/03 06:53:26;;;;;;;;;10.67;8.67;;;;;;;;4990078;28;46297;-66
2022/09/03 06:55:52;;;;;;;;;5.33;5.00;;;;;;;;4995996;28;45447;-66
2022/09/03 06:58:17;;;;;;;;;8.00;6.67;;;;;;;;4997992;28;45287;-65
2022/09/03 07:00:43;;;;;;;;;5.00;5.00;;;;;;;;4991373;28;45461;-66
2022/09/03 07:03:08;;;;;;;;;6.00;5.00;;;;;;;;4991350;28;46195;-66
2022/09/03 07:05:34;;;;;;;;;6.67;6.00;;;;;;;;4993922;28;45539;-66
2022/09/03 07:07:59;;;;;;;;;1.33;1.33;;;;;;;;4992955;28;45553;-66
2022/09/03 07:10:26;;;;;;;;;4.67;4.67;;;;;;;;4995803;28;45460;-68
2022/09/03 07:12:52;;;;;;;;;7.00;7.00;;;;;;;;4994390;28;46232;-66
2022/09/03 07:15:19;;;;;;;;;10.00;9.33;;;;;;;;4991883;28;45491;-66
2022/09/03 07:17:44;;;;;;;;;6.00;6.00;;;;;;;;4993326;28;45442;-66
2022/09/03 07:20:09;;;;;;;;;5.67;5.67;;;;;;;;4997325;28;45451;-67
2022/09/03 07:22:34;;;;;;;;;4.00;4.00;;;;;;;;4991794;28;45578;-66
2022/09/03 07:25:00;;;;;;;;;5.67;5.00;;;;;;;;4993266;28;45552;-67
2022/09/03 07:27:25;;;;;;;;;7.00;5.67;;;;;;;;4995937;28;45583;-66
2022/09/03 07:29:51;;;;;;;;;5.33;5.33;;;;;;;;4992652;28;45657;-67
2022/09/03 07:32:16;;;;;;;;;5.75;5.75;;;;;;;;4995160;28;47488;-65
2022/09/03 07:34:42;;;;;;;;;5.33;5.33;;;;;;;;4990734;28;46855;-66
2022/09/03 07:37:08;;;;;;;;;4.67;4.67;;;;;;;;4988965;28;45506;-66
2022/09/03 07:39:33;;;;;;;;;11.33;7.33;;;;;;;;4994151;28;45359;-66
2022/09/03 07:41:59;;;;;;;;;4.25;4.25;;;;;;;;4989598;28;46049;-64
2022/09/03 07:44:24;;;;;;;;;4.00;4.00;;;;;;;;4995367;28;45290;-77
2022/09/03 07:46:49;;;;;;;;;4.50;4.50;;;;;;;;4988366;28;45375;-76
2022/09/03 07:49:14;;;;;;;;;5.25;2.50;;;;;;;;4987080;28;45301;-72
2022/09/03 07:51:40;;;;;;;;;5.25;5.25;;;;;;;;4991882;28;47343;-76
2022/09/03 07:54:08;;;;;;;;;4.00;4.00;;;;;;;;4996075;28;45435;-76
2022/09/03 07:56:34;;;;;;;;;4.00;4.00;;;;;;;;4992669;28;45360;-76
2022/09/03 07:59:00;;;;;;;;;3.00;3.00;;;;;;;;4996304;28;45520;-77
2022/09/03 08:01:27;;;;;;;;;6.00;6.00;;;;;;;;4998369;28;47349;-76
2022/09/03 08:03:53;;;;;;;;;8.00;6.00;;;;;;;;4994984;28;45450;-63
2022/09/03 08:06:19;;;;;;;;;9.00;7.00;;;;;;;;4991780;28;45304;-63
2022/09/03 08:08:45;;;;;;;;;3.67;3.67;;;;;;;;4993274;28;45531;-63
2022/09/03 08:11:11;;;;;;;;;5.67;4.33;;;;;;;;4997482;28;45393;-63
2022/09/03 08:13:40;;;;;;;;;7.00;6.00;;;;;;;;4993636;28;45293;-63
2022/09/03 08:16:06;;;;;;;;;3.33;3.33;;;;;;;;4994773;28;45570;-63
2022/09/03 08:18:36;;;;;;;;;4.00;4.00;;;;;;;;4995605;28;45511;-66
2022/09/03 08:21:02;;;;;;;;;4.00;4.00;;;;;;;;4993210;28;46267;-66
2022/09/03 08:23:27;;;;;;;;;8.33;7.00;;;;;;;;4993812;28;45869;-65
2022/09/03 08:25:59;;;;;;;;;3.67;3.67;;;;;;;;4990690;28;46418;-66
2022/09/03 08:28:25;;;;;;;;;5.00;4.00;;;;;;;;5000568;28;45577;-69
2022/09/03 08:30:50;;;;;;;;;4.00;4.00;;;;;;;;4991979;28;46482;-66
2022/09/03 08:33:15;;;;;;;;;3.00;3.00;;;;;;;;4995991;28;45388;-65
2022/09/03 08:35:41;;;;;;;;;3.67;3.67;;;;;;;;5004517;28;45415;-65
2022/09/03 08:38:07;;;;;;;;;5.00;5.00;;;;;;;;4996048;28;45471;-65
2022/09/03 08:40:35;;;;;;;;;1.75;1.75;;;;;;;;4998857;28;47015;-66
2022/09/03 08:43:09;;;;;;;;;3.33;3.33;;;;;;;;5000633;28;45771;-64
2022/09/03 08:45:37;;;;;;;;;8.33;7.00;;;;;;;;4998390;28;45483;-65
2022/09/03 08:48:07;;;;;;;;;4.67;3.00;;;;;;;;5003775;28;45447;-65
2022/09/03 08:50:35;;;;;;;;;5.00;3.00;;;;;;;;4995654;28;47007;-66
2022/09/03 08:53:06;;;;;;;;;5.00;5.00;;;;;;;;4995597;28;45444;-64
2022/09/03 08:55:35;;;;;;;;;3.00;3.00;;;;;;;;4994926;28;45611;-65
2022/09/03 08:58:07;;;;;;;;;3.00;3.00;;;;;;;;4992663;28;45622;-65
2022/09/03 09:00:51;;;;;;;;;3.00;3.00;;;;;;;;4993741;28;46726;-66
2022/09/03 09:03:25;;;;;;;;;3.33;3.33;;;;;;;;4992979;28;45390;-65
2022/09/03 09:05:58;;;;;;;;;0.75;0.75;;;;;;;;4994310;28;45473;-66
2022/09/03 09:08:33;;;;;;;;;2.00;2.00;;;;;;;;5003074;28;45400;-66
2022/09/03 09:11:05;;;;;;;;;3.75;3.75;;;;;;;;4997953;28;45614;-65
2022/09/03 09:13:38;;;;;;;;;3.00;3.00;;;;;;;;5001604;28;45435;-63
2022/09/03 09:16:06;;;;;;;;;2.75;2.75;;;;;;;;4997225;28;45554;-74
2022/09/03 09:18:42;;;;;;;;;1.00;1.00;;;;;;;;4996496;28;45339;-62
2022/09/03 09:21:12;;;;;;;;;2.50;1.25;;;;;;;;4998322;28;45497;-63
2022/09/03 09:23:59;;;;;;;;;0.25;0.00;;;;;;;;4995721;28;45994;-63
2022/09/03 09:26:24;;;;;;;;;1.75;1.75;;;;;;;;4995604;28;45563;-63
2022/09/03 09:28:54;;;;;;;;;2.00;2.00;;;;;;;;4994893;28;45380;-63
2022/09/03 09:31:20;;;;;;;;;0.75;0.75;;;;;;;;4997967;28;46248;-74
2022/09/03 09:33:45;;;;;;;;;1.75;1.75;;;;;;;;5001776;28;45368;-75
2022/09/03 09:36:15;;;;;;;;;1.25;1.25;;;;;;;;4997047;28;45335;-64
2022/09/03 09:38:42;;;;;;;;;0.00;0.00;;;;;;;;4992257;28;45474;-65
2022/09/03 09:41:22;;;;;;;;;1.75;1.75;;;;;;;;4994562;28;46106;-64
2022/09/03 09:43:47;;;;;;;;;1.75;1.75;;;;;;;;4996647;28;45467;-68
2022/09/03 09:46:14;;;;;;;;;0.75;0.75;;;;;;;;4999207;28;45563;-68
2022/09/03 09:48:50;;;;;;;;;1.50;1.50;;;;;;;;4995858;28;45408;-66
2022/09/03 09:51:20;;;;;;;;;1.00;1.00;;;;;;;;4995220;28;46183;-65
2022/09/03 09:53:46;;;;;;;;;2.00;1.00;;;;;;;;4998260;28;45341;-67
2022/09/03 09:56:21;;;;;;;;;0.00;0.00;;;;;;;;4998508;28;45346;-63
2022/09/03 09:58:47;;;;;;;;;1.75;1.75;;;;;;;;5000172;28;45969;-72
2022/09/03 10:01:24;;;;;;;;;1.00;1.00;;;;;;;;5001608;28;45556;-68
2022/09/03 10:03:54;;;;;;;;;1.00;1.00;;;;;;;;4991686;28;45404;-67
2022/09/03 10:09:18;;;;;;;;;1.25;1.25;;;;;;;;5001059;28;45502;-71
2022/09/03 10:11:50;;;;;;;;;1.00;1.00;;;;;;;;4997413;28;46081;-71
2022/09/03 10:14:34;;;;;;;;;0.00;0.00;;;;;;;;4998985;28;45372;-66
2022/09/03 10:17:21;;;;;;;;;1.00;1.00;;;;;;;;5001607;28;45295;-75
2022/09/03 10:22:53;;;;;;;;;2.00;2.00;;;;;;;;4993941;28;45722;-67
2022/09/03 10:25:19;;;;;;;;;1.00;1.00;;;;;;;;4999296;28;45343;-70
2022/09/03 10:27:45;;;;;;;;;3.25;2.75;;;;;;;;4997917;28;45640;-68
2022/09/03 10:30:13;;;;;;;;;1.50;1.50;;;;;;;;4999247;28;45518;-68
2022/09/03 10:33:04;;;;;;;;;1.00;1.00;;;;;;;;4989146;28;47025;-68
2022/09/03 10:35:31;;;;;;;;;1.50;1.50;;;;;;;;4991959;28;45490;-68
2022/09/03 10:37:59;;;;;;;;;1.50;1.50;;;;;;;;4994034;28;45796;-69
2022/09/03 10:40:30;;;;;;;;;0.00;0.00;;;;;;;;4996596;28;45709;-65
2022/09/03 10:43:06;;;;;;;;;1.00;1.00;;;;;;;;5004045;28;46260;-64
2022/09/03 10:45:31;;;;;;;;;1.50;1.50;;;;;;;;4997369;28;45497;-63
2022/09/03 10:47:59;;;;;;;;;1.00;1.00;;;;;;;;4997275;28;45482;-61
2022/09/03 10:50:26;;;;;;;;;3.50;2.75;;;;;;;;4992757;28;45202;-73
2022/09/03 10:52:54;;;;;;;;;1.00;1.00;;;;;;;;4989456;28;46096;-63
2022/09/03 10:55:28;;;;;;;;;3.00;2.00;;;;;;;;4998500;28;45241;-78
2022/09/03 10:57:59;;;;;;;;;0.50;0.50;;;;;;;;4996995;28;45518;-66
2022/09/03 11:00:24;;;;;;;;;1.25;1.25;;;;;;;;4995262;28;45414;-63
2022/09/03 11:03:06;;;;;;;;;2.00;2.00;;;;;;;;4994011;28;46105;-75
2022/09/03 11:05:37;;;;;;;;;1.50;1.25;;;;;;;;4993866;28;45638;-70
2022/09/03 11:08:08;;;;;;;;;1.75;1.75;;;;;;;;4994973;28;45829;-68
2022/09/03 11:10:39;;;;;;;;;0.75;0.75;;;;;;;;5002959;28;45881;-68
2022/09/03 11:13:12;;;;;;;;;2.25;1.00;;;;;;;;4994650;28;46184;-73
2022/09/03 11:15:49;;;;;;;;;2.00;2.00;;;;;;;;4992070;28;46043;-61
2022/09/03 11:18:47;;;;;;;;;0.00;0.00;;;;;;;;4988937;28;45458;-74
2022/09/03 11:21:14;;;;;;;;;2.00;1.00;;;;;;;;4996246;28;45654;-62
2022/09/03 11:23:42;;;;;;;;;3.00;1.50;;;;;;;;4994875;28;46215;-69
2022/09/03 11:26:11;;;;;;;;;1.00;1.00;;;;;;;;4996954;28;45522;-63
2022/09/03 11:28:55;;;;;;;;;0.50;0.50;;;;;;;;4996370;28;45294;-62
2022/09/03 11:31:34;;;;;;;;;1.00;1.00;;;;;;;;4991821;28;45337;-67
2022/09/03 11:34:04;;;;;;;;;3.50;2.00;;;;;;;;4996962;28;45390;-62
2022/09/03 11:36:34;;;;;;;;;3.00;3.00;;;;;;;;4990846;28;45387;-65
2022/09/03 11:38:59;;;;;;;;;2.00;2.00;;;;;;;;4991089;28;45669;-62
2022/09/03 11:41:25;;;;;;;;;1.50;1.50;;;;;;;;4991639;28;45559;-72
2022/09/03 11:43:51;;;;;;;;;2.00;2.00;;;;;;;;4996745;28;46163;-62
2022/09/03 11:46:20;;;;;;;;;1.25;1.25;;;;;;;;4994424;28;45846;-62
2022/09/03 11:48:46;;;;;;;;;1.00;1.00;;;;;;;;4991789;28;45522;-62
2022/09/03 11:51:18;;;;;;;;;1.00;1.00;;;;;;;;4987620;28;45717;-61
2022/09/03 11:53:52;;;;;;;;;0.50;0.50;;;;;;;;4992812;28;46162;-61
2022/09/03 11:56:18;;;;;;;;;2.50;2.50;;;;;;;;4995485;28;45516;-63
2022/09/03 11:58:44;;;;;;;;;1.00;1.00;;;;;;;;4994946;28;45449;-64
2022/09/03 12:01:10;;;;;;;;;0.50;0.50;;;;;;;;4995711;28;45567;-66
2022/09/03 12:03:49;;;;;;;;;0.00;0.00;;;;;;;;4995382;28;46353;-65
2022/09/03 12:06:33;;;;;;;;;2.00;1.50;;;;;;;;4988622;28;45356;-68
2022/09/03 12:09:05;;;;;;;;;0.00;0.00;;;;;;;;4995273;28;45354;-70
2022/09/03 12:11:34;;;;;;;;;0.00;0.00;;;;;;;;4997880;28;45376;-76
2022/09/03 12:14:12;;;;;;;;;0.00;0.00;;;;;;;;4996061;28;46216;-76
2022/09/03 12:16:48;;;;;;;;;0.00;0.00;;;;;;;;4996451;28;46184;-74
2022/09/03 12:19:25;;;;;;;;;2.50;2.50;;;;;;;;4994283;28;45535;-73
2022/09/03 12:21:51;;;;;;;;;0.00;0.00;;;;;;;;4991090;28;45478;-62
2022/09/03 12:24:17;;;;;;;;;0.75;0.75;;;;;;;;5000494;28;46009;-75
2022/09/03 12:26:43;;;;;;;;;1.75;1.50;;;;;;;;4997204;28;45461;-76
2022/09/03 12:29:23;;;;;;;;;0.00;0.00;;;;;;;;4997224;28;45449;-69
2022/09/03 12:31:49;;;;;;;;;0.00;0.00;;;;;;;;4992962;28;45611;-69
2022/09/03 12:34:15;;;;;;;;;1.25;0.75;;;;;;;;4991928;28;46347;-67
2022/09/03 12:36:42;;;;;;;;;0.00;0.00;;;;;;;;4997289;28;45927;-75
2022/09/03 12:39:15;;;;;;;;;0.00;0.00;;;;;;;;4996629;28;45451;-75
2022/09/03 12:42:00;;;;;;;;;0.00;0.00;;;;;;;;4996674;28;45476;-75
2022/09/03 12:44:28;;;;;;;;;0.00;0.00;;;;;;;;4997749;28;45945;-74
2022/09/03 12:47:20;;;;;;;;;0.00;0.00;;;;;;;;5003351;28;45453;-74
2022/09/03 12:49:47;;;;;;;;;0.00;0.00;;;;;;;;5001912;28;45396;-73
2022/09/03 12:52:18;;;;;;;;;0.00;0.00;;;;;;;;5004289;28;45631;-77
2022/09/03 12:55:04;;;;;;;;;0.25;0.25;;;;;;;;5003912;28;45321;-64
2022/09/03 12:57:32;;;;;;;;;0.00;0.00;;;;;;;;4999658;28;45459;-71
2022/09/03 13:00:01;;;;;;;;;1.25;0.75;;;;;;;;4999199;28;45313;-75
2022/09/03 13:02:29;;;;;;;;;0.00;0.00;;;;;;;;5000164;28;45633;-65
2022/09/03 13:04:55;;;;;;;;;2.50;1.00;;;;;;;;4995565;28;45543;-72
2022/09/03 13:07:20;;;;;;;;;0.50;0.00;;;;;;;;4991626;28;45453;-76
2022/09/03 13:09:46;;;;;;;;;0.00;0.00;;;;;;;;4998009;28;45528;-77
2022/09/03 13:12:22;;;;;;;;;0.00;0.00;;;;;;;;4990910;28;45473;-73
2022/09/03 13:14:47;;;;;;;;;0.00;0.00;;;;;;;;4999810;28;46046;-69
2022/09/03 13:17:13;;;;;;;;;0.00;0.00;;;;;;;;4996079;28;45225;-62
2022/09/03 13:19:39;;;;;;;;;0.00;0.00;;;;;;;;4996491;28;45549;-67
2022/09/03 13:22:07;;;;;;;;;0.00;0.00;;;;;;;;4994415;28;45578;-62
2022/09/03 13:24:51;;;;;;;;;0.00;0.00;;;;;;;;4999274;28;45896;-65
2022/09/03 13:27:19;;;;;;;;;0.50;0.00;;;;;;;;5001861;28;45208;-67
2022/09/03 13:29:44;;;;;;;;;0.00;0.00;;;;;;;;4996656;28;45500;-63
2022/09/03 13:32:32;;;;;;;;;0.00;0.00;;;;;;;;4999547;28;45434;-66
2022/09/03 13:35:03;;;;;;;;;0.00;0.00;;;;;;;;4994688;28;46112;-64
2022/09/03 13:37:34;;;;;;;;;0.00;0.00;;;;;;;;5001615;28;45383;-62
2022/09/03 13:40:14;;;;;;;;;0.00;0.00;;;;;;;;5000237;28;45293;-75
2022/09/03 13:42:43;;;;;;;;;0.00;0.00;;;;;;;;5000158;28;45503;-62
2022/09/03 13:45:19;;;;;;;;;0.00;0.00;;;;;;;;4997319;28;46489;-66
2022/09/03 13:50:58;;;;;;;;;0.75;0.00;;;;;;;;4992516;28;45355;-65
2022/09/03 13:53:31;;;;;;;;;0.00;0.00;;;;;;;;4997704;28;45349;-64
2022/09/03 13:56:03;;;;;;;;;0.00;0.00;;;;;;;;4990688;28;46389;-63
2022/09/03 13:58:31;;;;;;;;;0.00;0.00;;;;;;;;4996865;28;45438;-74
2022/09/03 14:00:57;;;;;;;;;0.00;0.00;;;;;;;;4996002;28;45481;-63
2022/09/03 14:03:25;;;;;;;;;0.00;0.00;;;;;;;;4999564;28;45351;-67
2022/09/03 14:05:53;;;;;;;;;0.00;0.00;;;;;;;;4998963;28;45261;-66
2022/09/03 14:08:22;;;;;;;;;0.00;0.00;;;;;;;;4999658;28;45453;-66
2022/09/03 14:10:54;;;;;;;;;0.00;0.00;;;;;;;;4996571;28;45495;-67
2022/09/03 14:13:22;;;;;;;;;1.50;0.00;;;;;;;;4993349;28;45478;-66
2022/09/03 14:15:50;;;;;;;;;0.00;0.00;;;;;;;;4997997;28;45463;-66
2022/09/03 14:18:17;;;;;;;;;0.00;0.00;;;;;;;;4998985;28;45315;-69
2022/09/03 14:20:46;;;;;;;;;0.00;0.00;;;;;;;;4997389;28;45474;-66
2022/09/03 14:23:33;;;;;;;;;0.00;0.00;;;;;;;;4995516;28;45629;-66
2022/09/03 14:26:01;;;;;;;;;0.00;0.00;;;;;;;;4997412;28;46098;-63
2022/09/03 14:28:26;;;;;;;;;0.00;0.00;;;;;;;;4997262;28;45499;-63
2022/09/03 14:30:57;;;;;;;;;0.00;0.00;;;;;;;;4996276;28;45274;-63
2022/09/03 14:33:25;;;;;;;;;0.00;0.00;;;;;;;;4996829;28;45537;-64
2022/09/03 14:35:56;;;;;;;;;0.00;0.00;;;;;;;;4998117;28;46650;-64
2022/09/03 14:38:21;;;;;;;;;0.00;0.00;;;;;;;;4998235;28;45575;-64
2022/09/03 14:41:02;;;;;;;;;0.00;0.00;;;;;;;;4997431;28;45290;-66
2022/09/03 14:43:30;;;;;;;;;0.00;0.00;;;;;;;;4994607;28;45395;-65
2022/09/03 14:46:02;;;;;;;;;0.00;0.00;;;;;;;;5009513;28;47922;-65
2022/09/03 14:48:48;;;;;;;;;0.00;0.00;;;;;;;;4998918;28;45517;-65
2022/09/03 14:51:16;;;;;;;;;0.00;0.00;;;;;;;;4999501;28;45442;-65
2022/09/03 14:53:49;;;;;;;;;0.00;0.00;;;;;;;;4998153;28;45551;-64
2022/09/03 14:56:37;;;;;;;;;0.00;0.00;;;;;;;;4993390;28;45494;-65
2022/09/03 14:59:22;;;;;;;;;0.75;0.75;;;;;;;;4995613;28;45221;-65
2022/09/03 15:01:55;;;;;;;;;0.00;0.00;;;;;;;;4996649;28;45457;-65
2022/09/03 15:04:52;;;;;;;;;3.50;0.50;;;;;;;;4994994;28;45543;-66
2022/09/03 15:07:26;;;;;;;;;0.50;0.50;;;;;;;;4980822;28;45473;-65
2022/09/03 15:10:10;;;;;;;;;1.50;0.75;;;;;;;;4993354;28;45498;-64
2022/09/03 15:12:36;;;;;;;;;0.00;0.00;;;;;;;;4996879;28;45502;-67
2022/09/03 15:15:07;;;;;;;;;1.75;0.00;;;;;;;;4997014;28;45465;-65
2022/09/03 15:17:38;;;;;;;;;0.00;0.00;;;;;;;;4994237;28;45800;-66
2022/09/03 15:20:23;;;;;;;;;0.75;0.00;;;;;;;;4991637;28;45621;-66
2022/09/03 15:22:54;;;;;;;;;0.00;0.00;;;;;;;;4986349;28;45400;-64
2022/09/03 15:25:25;;;;;;;;;0.00;0.00;;;;;;;;4986298;28;45622;-65
2022/09/03 15:27:53;;;;;;;;;0.00;0.00;;;;;;;;4981198;28;46088;-64
2022/09/03 15:30:19;;;;;;;;;0.00;0.00;;;;;;;;4986525;28;45404;-65
2022/09/03 15:32:48;;;;;;;;;0.00;0.00;;;;;;;;4995948;28;45545;-66
2022/09/03 15:35:32;;;;;;;;;0.00;0.00;;;;;;;;4997822;28;45292;-65
2022/09/03 15:38:03;;;;;;;;;0.75;0.75;;;;;;;;4991338;28;47174;-64
2022/09/03 15:40:30;;;;;;;;;0.00;0.00;;;;;;;;4992353;28;45498;-64
2022/09/03 15:43:11;;;;;;;;;0.75;0.75;;;;;;;;4988703;28;45783;-64
2022/09/03 15:45:39;;;;;;;;;0.00;0.00;;;;;;;;4992722;28;45395;-64
2022/09/03 15:48:12;;;;;;;;;0.25;0.25;;;;;;;;4996607;28;45864;-65
2022/09/03 15:51:01;;;;;;;;;0.00;0.00;;;;;;;;4996640;28;45442;-65
2022/09/03 15:53:32;;;;;;;;;0.50;0.50;;;;;;;;4992145;28;45284;-65
2022/09/03 15:56:18;;;;;;;;;0.75;0.75;;;;;;;;4997147;28;46776;-67
2022/09/03 15:58:52;;;;;;;;;1.25;0.75;;;;;;;;4991325;28;45381;-68
2022/09/03 16:01:36;;;;;;;;;0.75;0.75;;;;;;;;4997236;28;45521;-68
2022/09/03 16:04:19;;;;;;;;;0.25;0.25;;;;;;;;4998055;28;46531;-68
2022/09/03 16:06:49;;;;;;;;;2.00;0.75;;;;;;;;4997697;28;45522;-67
2022/09/03 16:09:18;;;;;;;;;1.50;1.50;;;;;;;;4995142;28;45415;-68
2022/09/03 16:11:50;;;;;;;;;1.00;1.00;;;;;;;;4997210;28;45171;-68
2022/09/03 16:14:29;;;;;;;;;0.75;0.75;;;;;;;;4997551;28;45546;-68
2022/09/03 16:17:13;;;;;;;;;1.00;1.00;;;;;;;;4998181;28;45234;-67
2022/09/03 16:19:38;;;;;;;;;0.75;0.75;;;;;;;;4992230;28;46315;-68
2022/09/03 16:22:20;;;;;;;;;2.50;1.00;;;;;;;;4997016;28;45467;-65
2022/09/03 16:24:48;;;;;;;;;0.00;0.00;;;;;;;;5001565;28;45450;-65
2022/09/03 16:27:21;;;;;;;;;1.00;1.00;;;;;;;;4997897;28;45410;-65
2022/09/03 16:29:54;;;;;;;;;1.00;1.00;;;;;;;;4997770;28;45549;-64
2022/09/03 16:32:25;;;;;;;;;1.00;1.00;;;;;;;;4997804;28;45403;-64
2022/09/03 16:34:51;;;;;;;;;2.50;1.00;;;;;;;;4996419;28;45959;-66
2022/09/03 16:37:24;;;;;;;;;1.00;1.00;;;;;;;;4997809;28;45351;-67
2022/09/03 16:39:59;;;;;;;;;3.75;3.75;;;;;;;;4994766;28;47307;-67
2022/09/03 16:42:42;;;;;;;;;2.00;2.00;;;;;;;;4996258;28;45222;-67
2022/09/03 16:45:13;;;;;;;;;1.75;1.75;;;;;;;;4997592;28;45596;-66
2022/09/03 16:47:54;;;;;;;;;4.00;2.25;;;;;;;;4998074;28;45415;-67
2022/09/03 16:50:22;;;;;;;;;0.75;0.75;;;;;;;;4993839;28;45244;-66
2022/09/03 16:52:58;;;;;;;;;1.75;1.75;;;;;;;;4997428;28;45391;-66
2022/09/03 16:55:47;;;;;;;;;1.00;1.00;;;;;;;;4996936;28;45663;-67
2022/09/03 16:58:18;;;;;;;;;1.00;1.00;;;;;;;;4999984;28;45621;-66
2022/09/03 17:00:59;;;;;;;;;2.00;1.00;;;;;;;;5003550;28;46181;-67
2022/09/03 17:03:25;;;;;;;;;0.75;0.75;;;;;;;;5000555;28;45447;-66
2022/09/03 17:05:50;;;;;;;;;1.00;1.00;;;;;;;;4999904;28;45285;-66
2022/09/03 17:08:21;;;;;;;;;1.50;1.50;;;;;;;;4999963;28;45580;-67
2022/09/03 17:10:46;;;;;;;;;2.25;2.25;;;;;;;;5001623;28;45396;-66
2022/09/03 17:13:35;;;;;;;;;2.00;2.00;;;;;;;;4999753;28;45353;-66
2022/09/03 17:16:10;;;;;;;;;2.25;2.25;;;;;;;;4999119;28;45656;-65
2022/09/03 17:18:53;;;;;;;;;2.25;2.25;;;;;;;;4995965;28;45501;-65
2022/09/03 17:21:31;;;;;;;;;3.00;3.00;;;;;;;;4999559;28;45360;-66
2022/09/03 17:24:15;;;;;;;;;3.00;3.00;;;;;;;;4998275;28;45595;-65
2022/09/03 17:26:55;;;;;;;;;2.00;2.00;;;;;;;;4999781;28;45425;-66
2022/09/03 17:29:22;;;;;;;;;2.25;2.25;;;;;;;;5000104;28;45526;-65
2022/09/03 17:31:58;;;;;;;;;2.00;2.00;;;;;;;;4998933;28;45374;-65
2022/09/03 17:34:29;;;;;;;;;3.00;3.00;;;;;;;;4998761;28;45568;-65
2022/09/03 17:37:12;;;;;;;;;1.25;1.25;;;;;;;;4998459;28;46304;-66
2022/09/03 17:40:04;;;;;;;;;5.00;3.25;;;;;;;;4998724;28;45368;-67
2022/09/03 17:42:48;;;;;;;;;2.25;2.25;;;;;;;;4983783;28;46921;-66
2022/09/03 17:45:19;;;;;;;;;3.00;3.00;;;;;;;;4997360;28;45302;-67
2022/09/03 17:48:06;;;;;;;;;2.50;2.50;;;;;;;;4998041;28;45448;-66
2022/09/03 17:50:41;;;;;;;;;3.00;3.00;;;;;;;;4994663;28;45434;-66
2022/09/03 17:53:15;;;;;;;;;4.67;4.00;;;;;;;;4999544;28;46196;-66
2022/09/03 17:55:43;;;;;;;;;7.00;5.00;;;;;;;;4999511;28;45539;-66
2022/09/03 17:58:15;;;;;;;;;4.67;3.00;;;;;;;;4998832;28;45501;-67
2022/09/03 18:00:50;;;;;;;;;5.75;3.75;;;;;;;;4997633;28;45487;-66
2022/09/03 18:03:20;;;;;;;;;2.00;2.00;;;;;;;;4998931;28;45532;-67
2022/09/03 18:05:46;;;;;;;;;1.50;1.50;;;;;;;;4999599;28;46114;-66
2022/09/03 18:08:25;;;;;;;;;3.00;3.00;;;;;;;;4996095;28;46108;-66
2022/09/03 18:11:04;;;;;;;;;3.50;3.50;;;;;;;;4998287;28;45448;-67
2022/09/03 18:13:35;;;;;;;;;3.75;3.75;;;;;;;;4997586;28;45608;-67
2022/09/03 18:16:26;;;;;;;;;3.75;3.75;;;;;;;;4999104;28;45356;-66
2022/09/03 18:18:57;;;;;;;;;4.75;3.25;;;;;;;;4995900;28;45353;-65
2022/09/03 20:12:54;;;;;;;;;16.33;14.00;;;;;;;;4997784;28;45414;-66
2022/09/03 20:15:21;;;;;;;;;12.00;12.00;;;;;;;;4997784;28;45439;-66
2022/09/03 20:18:00;;;;;;;;;15.00;15.00;;;;;;;;4997279;28;46380;-65
2022/09/03 20:20:28;;;;;;;;;10.00;10.00;;;;;;;;4991928;28;45422;-66
2022/09/03 20:23:00;;;;;;;;;15.00;15.00;;;;;;;;4996245;28;45531;-66
2022/09/03 20:25:28;;;;;;;;;12.33;12.33;;;;;;;;4997545;28;45361;-65
2022/09/03 20:28:08;;;;;;;;;11.67;11.67;;;;;;;;4997336;28;45610;-67
2022/09/03 20:30:42;;;;;;;;;15.67;15.67;;;;;;;;4996364;28;45408;-66
2022/09/03 20:33:25;;;;;;;;;23.33;18.67;;;;;;;;5000908;28;45378;-66
2022/09/03 20:36:17;;;;;;;;;18.33;18.33;;;;;;;;4999068;28;45716;-66
2022/09/03 20:38:45;;;;;;;;;16.33;15.33;;;;;;;;4999870;28;48145;-66
2022/09/03 20:41:36;;;;;;;;;16.67;14.67;;;;;;;;5000206;28;45453;-66
2022/09/03 20:44:28;;;;;;;;;19.00;17.00;;;;;;;;4984810;28;45515;-67
2022/09/03 20:46:59;;;;;;;;;15.67;15.67;;;;;;;;4993040;28;45632;-67
2022/09/03 20:49:39;;;;;;;;;15.67;12.67;;;;;;;;4996689;28;46332;-67
2022/09/03 20:52:17;;;;;;;;;15.67;14.00;;;;;;;;5000433;28;45507;-66
2022/09/03 20:55:02;;;;;;;;;13.00;11.00;;;;;;;;5000371;28;45473;-66
2022/09/03 20:57:27;;;;;;;;;13.33;12.33;;;;;;;;4999949;28;45631;-66
2022/09/03 21:00:09;;;;;;;;;13.00;12.00;;;;;;;;5000104;28;46530;-66
2022/09/03 21:02:47;;;;;;;;;12.33;12.33;;;;;;;;5000010;28;45368;-66
2022/09/03 21:05:30;;;;;;;;;10.67;10.67;;;;;;;;4998793;28;45511;-67
2022/09/03 21:08:14;;;;;;;;;13.00;13.00;;;;;;;;5000420;28;45625;-65
2022/09/03 21:10:45;;;;;;;;;10.33;10.00;;;;;;;;4994467;28;45467;-66
2022/09/03 21:13:13;;;;;;;;;12.00;10.33;;;;;;;;5000339;28;45503;-66
2022/09/03 21:15:55;;;;;;;;;9.67;9.67;;;;;;;;4997799;28;45448;-65
2022/09/03 21:18:26;;;;;;;;;9.00;9.00;;;;;;;;4998000;28;45429;-65
2022/09/03 21:21:09;;;;;;;;;10.00;10.00;;;;;;;;4998723;28;46613;-66
2022/09/03 21:23:42;;;;;;;;;9.00;9.00;;;;;;;;4998278;28;45374;-66
2022/09/03 21:26:16;;;;;;;;;7.33;7.33;;;;;;;;4999941;28;45666;-66
2022/09/03 21:28:50;;;;;;;;;7.67;7.67;;;;;;;;5002438;28;45254;-65
2022/09/03 21:31:20;;;;;;;;;10.67;9.00;;;;;;;;5000113;28;46272;-66
2022/09/03 21:33:48;;;;;;;;;8.00;6.33;;;;;;;;4999195;28;45801;-65
2022/09/03 21:36:16;;;;;;;;;7.00;7.00;;;;;;;;4997984;28;45498;-65
2022/09/03 21:38:44;;;;;;;;;7.00;6.33;;;;;;;;4999617;28;45460;-66
2022/09/03 21:41:15;;;;;;;;;5.00;5.00;;;;;;;;4999990;28;46208;-65
2022/09/03 21:43:48;;;;;;;;;7.00;7.00;;;;;;;;4998684;28;45557;-65
2022/09/03 21:46:14;;;;;;;;;8.00;7.00;;;;;;;;4994256;28;45672;-65
2022/09/03 21:48:46;;;;;;;;;8.25;6.25;;;;;;;;4998906;28;45311;-65
2022/09/03 21:51:31;;;;;;;;;6.67;6.00;;;;;;;;4996844;28;46201;-65
2022/09/03 21:54:00;;;;;;;;;2.67;1.00;;;;;;;;4998858;28;45336;-66
2022/09/03 21:56:32;;;;;;;;;6.33;6.33;;;;;;;;4999924;28;45451;-66
2022/09/03 21:59:08;;;;;;;;;6.00;6.00;;;;;;;;4999517;28;45252;-66
2022/09/03 22:01:36;;;;;;;;;6.00;6.00;;;;;;;;4998899;28;46310;-65
2022/09/03 22:04:01;;;;;;;;;9.00;9.00;;;;;;;;4999239;28;45271;-65
2022/09/03 22:06:46;;;;;;;;;8.33;7.00;;;;;;;;4999935;28;45451;-65
2022/09/03 22:09:44;;;;;;;;;7.67;7.67;;;;;;;;4977437;28;45659;-65
2022/09/03 22:12:17;;;;;;;;;5.67;5.67;;;;;;;;5008619;28;45767;-66
2022/09/03 22:14:46;;;;;;;;;7.33;7.33;;;;;;;;4998922;28;45674;-66
2022/09/03 22:17:19;;;;;;;;;11.00;11.00;;;;;;;;4997315;28;45418;-65
2022/09/03 22:19:44;;;;;;;;;10.33;8.67;;;;;;;;4998254;28;45300;-65
2022/09/03 22:22:22;;;;;;;;;7.00;7.00;;;;;;;;4997965;28;45262;-66
